createdAt,value
2022-11-25T00:00:43.663Z,2.28
2022-11-25T00:01:43.693Z,2.15
2022-11-25T00:02:43.809Z,2.17
2022-11-25T00:03:43.636Z,2.11
2022-11-25T00:04:43.659Z,2.13
2022-11-25T00:05:43.629Z,2.11
2022-11-25T00:06:43.610Z,2.07
2022-11-25T00:07:43.650Z,2.18
2022-11-25T00:08:43.604Z,2.25
2022-11-25T00:09:43.625Z,2.22
2022-11-25T00:10:43.588Z,2.15
2022-11-25T00:11:43.593Z,2.24
2022-11-25T00:12:43.570Z,2.15
2022-11-25T00:13:43.568Z,2.20
2022-11-25T00:14:43.577Z,2.07
2022-11-25T00:15:43.543Z,2.15
2022-11-25T00:16:48.123Z,2.13
2022-11-25T00:17:45.537Z,2.11
2022-11-25T00:18:43.523Z,2.15
2022-11-25T00:19:43.544Z,2.07
2022-11-25T00:20:43.523Z,2.13
2022-11-25T00:21:43.510Z,2.17
2022-11-25T00:22:43.489Z,2.22
2022-11-25T00:23:43.478Z,2.13
2022-11-25T00:24:44.510Z,2.18
2022-11-25T00:25:43.474Z,2.15
2022-11-25T00:26:43.480Z,2.04
2022-11-25T00:29:17.874Z,2.15
2022-11-25T00:30:17.873Z,2.15
2022-11-25T00:31:17.893Z,2.10
2022-11-25T00:32:17.857Z,2.11
2022-11-25T00:33:17.851Z,2.15
2022-11-25T00:34:17.868Z,2.10
2022-11-25T00:35:17.834Z,2.10
2022-11-25T00:36:17.823Z,2.07
2022-11-25T00:37:17.820Z,2.07
2022-11-25T00:38:17.806Z,2.04
2022-11-25T00:39:17.834Z,1.99
2022-11-25T00:40:17.793Z,2.02
2022-11-25T00:41:17.791Z,2.08
2022-11-25T00:42:17.786Z,2.08
2022-11-25T00:43:18.920Z,2.08
2022-11-25T00:44:18.942Z,1.99
2022-11-25T00:45:18.910Z,2.00
2022-11-25T00:46:18.956Z,2.07
2022-11-25T00:47:18.886Z,2.00
2022-11-25T00:48:18.882Z,2.02
2022-11-25T00:49:18.900Z,2.04
2022-11-25T00:50:18.863Z,2.06
2022-11-25T00:51:18.858Z,2.06
2022-11-25T00:52:18.849Z,2.00
2022-11-25T00:53:18.840Z,2.13
2022-11-25T00:54:18.867Z,2.02
2022-11-25T00:55:18.823Z,1.97
2022-11-25T00:56:18.817Z,2.02
2022-11-25T00:57:18.810Z,1.97
2022-11-25T00:58:18.799Z,1.89
2022-11-25T00:59:18.826Z,2.02
2022-11-25T01:00:18.789Z,2.02
2022-11-25T01:01:18.846Z,2.02
2022-11-25T01:02:18.841Z,1.91
2022-11-25T01:03:18.769Z,1.99
2022-11-25T01:04:18.795Z,1.95
2022-11-25T01:05:18.753Z,1.88
2022-11-25T01:06:18.751Z,1.92
2022-11-25T01:07:18.791Z,1.81
2022-11-25T01:08:18.729Z,1.91
2022-11-25T01:09:18.771Z,1.88
2022-11-25T01:10:18.712Z,1.84
2022-11-25T01:11:18.707Z,1.87
2022-11-25T01:12:18.703Z,1.91
2022-11-25T01:13:18.696Z,1.87
2022-11-25T01:14:18.688Z,1.88
2022-11-25T01:15:18.710Z,1.92
2022-11-25T01:16:18.691Z,1.88
2022-11-25T01:17:18.670Z,1.81
2022-11-25T01:18:18.653Z,1.84
2022-11-25T01:19:18.644Z,1.84
2022-11-25T01:20:19.671Z,1.78
2022-11-25T01:21:18.629Z,1.77
2022-11-25T01:22:18.624Z,1.81
2022-11-25T01:23:18.617Z,1.84
2022-11-25T01:24:18.607Z,1.99
2022-11-25T01:25:18.636Z,1.91
2022-11-25T01:26:18.606Z,1.77
2022-11-25T01:27:18.588Z,1.84
2022-11-25T01:28:18.581Z,1.81
2022-11-25T01:29:18.572Z,1.80
2022-11-25T01:30:18.591Z,1.80
2022-11-25T01:31:18.640Z,1.89
2022-11-25T01:32:18.553Z,1.74
2022-11-25T01:33:18.548Z,1.81
2022-11-25T01:34:18.539Z,1.73
2022-11-25T01:35:18.563Z,1.74
2022-11-25T01:36:18.519Z,1.68
2022-11-25T01:37:18.517Z,1.80
2022-11-25T01:38:18.506Z,1.70
2022-11-25T01:39:18.500Z,1.58
2022-11-25T01:40:18.520Z,1.73
2022-11-25T01:41:18.499Z,1.66
2022-11-25T01:42:18.497Z,1.66
2022-11-25T01:43:18.481Z,1.71
2022-11-25T01:44:18.455Z,1.70
2022-11-25T01:45:18.478Z,1.76
2022-11-25T01:46:18.511Z,1.70
2022-11-25T01:47:18.437Z,1.62
2022-11-25T01:48:18.430Z,1.67
2022-11-25T01:49:18.422Z,1.63
2022-11-25T01:50:18.439Z,1.66
2022-11-25T01:51:18.405Z,1.68
2022-11-25T01:52:18.396Z,1.63
2022-11-25T01:53:18.392Z,1.76
2022-11-25T01:54:18.432Z,1.66
2022-11-25T01:55:18.401Z,1.77
2022-11-25T01:56:18.366Z,1.85
2022-11-25T01:57:18.355Z,1.84
2022-11-25T01:58:18.354Z,1.85
2022-11-25T01:59:18.344Z,1.67
2022-11-25T02:00:18.361Z,1.62
2022-11-25T02:01:18.407Z,1.62
2022-11-25T02:02:18.385Z,1.59
2022-11-25T02:03:18.318Z,1.66
2022-11-25T02:04:18.313Z,1.63
2022-11-25T02:05:18.326Z,1.71
2022-11-25T02:06:18.299Z,1.74
2022-11-25T02:07:18.337Z,1.62
2022-11-25T02:08:18.286Z,1.71
2022-11-25T02:09:18.270Z,1.74
2022-11-25T02:10:18.291Z,1.73
2022-11-25T02:11:18.257Z,1.76
2022-11-25T02:12:18.251Z,1.68
2022-11-25T02:13:18.244Z,1.71
2022-11-25T02:14:18.235Z,1.67
2022-11-25T02:15:18.256Z,1.56
2022-11-25T02:16:18.292Z,1.53
2022-11-25T02:17:18.215Z,1.53
2022-11-25T02:18:18.208Z,1.56
2022-11-25T02:19:18.202Z,1.52
2022-11-25T02:20:18.219Z,1.40
2022-11-25T02:21:18.185Z,1.34
2022-11-25T02:22:18.172Z,1.40
2022-11-25T02:23:18.167Z,1.44
2022-11-25T02:24:18.159Z,1.44
2022-11-25T02:25:18.183Z,1.30
2022-11-25T02:26:18.151Z,1.28
2022-11-25T02:27:18.140Z,1.31
2022-11-25T02:28:18.136Z,1.37
2022-11-25T02:29:18.124Z,1.34
2022-11-25T02:30:18.151Z,1.34
2022-11-25T02:31:18.141Z,1.38
2022-11-25T02:32:18.099Z,1.28
2022-11-25T02:33:18.094Z,1.24
2022-11-25T02:34:18.093Z,1.32
2022-11-25T02:35:18.085Z,1.30
2022-11-25T02:36:18.098Z,1.35
2022-11-25T02:37:18.064Z,1.28
2022-11-25T02:38:18.061Z,1.24
2022-11-25T02:39:18.051Z,1.26
2022-11-25T02:40:18.042Z,1.30
2022-11-25T02:41:18.059Z,1.28
2022-11-25T02:42:18.032Z,1.19
2022-11-25T02:43:18.019Z,1.23
2022-11-25T02:44:18.016Z,1.30
2022-11-25T02:45:17.996Z,1.30
2022-11-25T02:46:22.197Z,1.32
2022-11-25T02:47:18.997Z,1.31
2022-11-25T02:48:17.982Z,1.35
2022-11-25T02:49:17.976Z,1.38
2022-11-25T02:50:17.963Z,1.32
2022-11-25T02:51:17.989Z,1.14
2022-11-25T02:52:17.951Z,1.31
2022-11-25T02:53:17.945Z,1.23
2022-11-25T02:54:17.943Z,1.24
2022-11-25T02:55:17.936Z,1.32
2022-11-25T02:56:17.956Z,1.22
2022-11-25T02:57:17.918Z,1.12
2022-11-25T02:58:17.913Z,1.17
2022-11-25T02:59:17.908Z,1.20
2022-11-25T03:00:17.901Z,1.16
2022-11-25T03:01:17.996Z,1.20
2022-11-25T03:02:17.979Z,1.16
2022-11-25T03:03:17.872Z,1.19
2022-11-25T03:04:17.862Z,1.23
2022-11-25T03:05:17.859Z,1.23
2022-11-25T03:06:17.886Z,1.22
2022-11-25T03:07:17.882Z,1.19
2022-11-25T03:08:17.831Z,1.14
2022-11-25T03:09:17.831Z,1.10
2022-11-25T03:10:17.814Z,1.08
2022-11-25T03:11:17.839Z,1.16
2022-11-25T03:12:17.808Z,1.12
2022-11-25T03:13:17.798Z,1.08
2022-11-25T03:14:17.796Z,1.17
2022-11-25T03:15:17.791Z,1.13
2022-11-25T03:16:17.844Z,1.12
2022-11-25T03:17:17.773Z,1.16
2022-11-25T03:18:17.768Z,1.14
2022-11-25T03:19:17.755Z,1.16
2022-11-25T03:20:17.756Z,1.14
2022-11-25T03:21:17.766Z,1.13
2022-11-25T03:22:17.733Z,1.10
2022-11-25T03:23:17.732Z,1.22
2022-11-25T03:24:17.716Z,1.08
2022-11-25T03:25:17.715Z,1.28
2022-11-25T03:26:17.745Z,1.20
2022-11-25T03:27:17.695Z,1.24
2022-11-25T03:28:17.689Z,1.31
2022-11-25T03:29:17.682Z,1.23
2022-11-25T03:30:17.676Z,1.31
2022-11-25T03:31:17.719Z,1.26
2022-11-25T03:32:17.716Z,1.22
2022-11-25T03:33:17.655Z,1.14
2022-11-25T03:34:17.643Z,1.08
2022-11-25T03:35:17.644Z,1.05
2022-11-25T03:36:17.658Z,1.22
2022-11-25T03:37:17.656Z,1.08
2022-11-25T03:38:17.614Z,1.14
2022-11-25T03:39:17.606Z,1.31
2022-11-25T03:40:17.600Z,1.20
2022-11-25T03:41:17.619Z,1.28
2022-11-25T03:42:17.587Z,1.14
2022-11-25T03:43:17.578Z,1.13
2022-11-25T03:44:17.570Z,1.16
2022-11-25T03:45:17.558Z,1.16
2022-11-25T03:46:17.662Z,1.17
2022-11-25T03:47:17.558Z,1.13
2022-11-25T03:48:17.546Z,1.17
2022-11-25T03:49:17.533Z,1.22
2022-11-25T03:50:17.530Z,1.17
2022-11-25T03:51:17.519Z,1.08
2022-11-25T03:52:17.545Z,1.12
2022-11-25T03:53:17.504Z,1.05
2022-11-25T03:54:17.489Z,1.16
2022-11-25T03:55:17.489Z,1.04
2022-11-25T03:56:17.485Z,1.04
2022-11-25T03:57:17.499Z,1.05
2022-11-25T03:58:17.461Z,1.17
2022-11-25T03:59:17.456Z,1.22
2022-11-25T04:00:17.447Z,1.08
2022-11-25T04:01:17.527Z,1.28
2022-11-25T04:02:17.526Z,1.19
2022-11-25T04:03:17.421Z,1.26
2022-11-25T04:04:17.423Z,1.23
2022-11-25T04:05:17.415Z,1.19
2022-11-25T04:06:17.400Z,1.34
2022-11-25T04:07:17.493Z,1.28
2022-11-25T04:08:17.382Z,1.24
2022-11-25T04:09:17.386Z,1.26
2022-11-25T04:10:17.368Z,1.22
2022-11-25T04:11:17.372Z,1.20
2022-11-25T04:12:17.383Z,1.23
2022-11-25T04:13:17.347Z,1.22
2022-11-25T04:14:17.336Z,1.30
2022-11-25T04:15:17.335Z,1.26
2022-11-25T04:16:17.364Z,1.28
2022-11-25T04:17:17.337Z,1.24
2022-11-25T04:18:17.306Z,1.28
2022-11-25T04:19:17.298Z,1.32
2022-11-25T04:20:17.290Z,1.23
2022-11-25T04:21:17.286Z,1.26
2022-11-25T04:22:17.301Z,1.20
2022-11-25T04:23:17.264Z,1.13
2022-11-25T04:24:17.256Z,1.17
2022-11-25T04:25:17.250Z,1.24
2022-11-25T04:26:17.246Z,1.23
2022-11-25T04:27:19.262Z,1.22
2022-11-25T04:28:17.229Z,1.20
2022-11-25T04:29:17.236Z,1.24
2022-11-25T04:30:17.216Z,1.24
2022-11-25T04:31:17.303Z,1.31
2022-11-25T04:32:17.229Z,1.28
2022-11-25T04:33:17.203Z,1.24
2022-11-25T04:34:17.192Z,1.28
2022-11-25T04:35:17.183Z,1.31
2022-11-25T04:36:17.173Z,1.24
2022-11-25T04:37:17.200Z,1.20
2022-11-25T04:38:17.159Z,1.30
2022-11-25T04:39:17.154Z,1.23
2022-11-25T04:40:17.140Z,1.31
2022-11-25T04:41:17.131Z,1.14
2022-11-25T04:42:17.155Z,1.17
2022-11-25T04:43:17.116Z,1.14
2022-11-25T04:44:17.107Z,1.17
2022-11-25T04:45:24.752Z,1.20
2022-11-25T04:46:19.183Z,1.23
2022-11-25T04:47:17.125Z,1.24
2022-11-25T04:48:17.084Z,1.14
2022-11-25T04:49:17.076Z,1.24
2022-11-25T04:50:17.067Z,1.20
2022-11-25T04:51:17.057Z,1.19
2022-11-25T04:52:17.047Z,1.28
2022-11-25T04:53:17.528Z,1.14
2022-11-25T04:54:17.642Z,1.14
2022-11-25T04:55:18.023Z,1.20
2022-11-25T04:56:17.017Z,1.28
2022-11-25T04:57:17.012Z,1.22
2022-11-25T04:58:17.501Z,1.17
2022-11-25T04:59:17.000Z,1.13
2022-11-25T05:00:16.990Z,1.05
2022-11-25T05:01:17.026Z,1.12
2022-11-25T05:02:17.027Z,1.14
2022-11-25T05:03:16.991Z,1.10
2022-11-25T05:04:16.964Z,1.10
2022-11-25T05:05:16.956Z,1.17
2022-11-25T05:06:16.944Z,1.14
2022-11-25T05:07:16.988Z,1.06
2022-11-25T05:08:16.958Z,1.02
2022-11-25T05:09:16.922Z,0.99
2022-11-25T05:10:16.917Z,1.16
2022-11-25T05:11:16.908Z,1.10
2022-11-25T05:12:16.898Z,1.19
2022-11-25T05:13:16.919Z,1.13
2022-11-25T05:14:16.888Z,1.14
2022-11-25T05:15:16.879Z,1.20
2022-11-25T05:16:16.907Z,1.13
2022-11-25T05:17:16.862Z,1.17
2022-11-25T05:18:16.887Z,1.23
2022-11-25T05:19:17.445Z,1.32
2022-11-25T05:20:16.847Z,1.30
2022-11-25T05:21:16.841Z,1.32
2022-11-25T05:22:16.840Z,1.24
2022-11-25T05:23:16.849Z,1.28
2022-11-25T05:24:16.815Z,1.35
2022-11-25T05:25:16.813Z,1.34
2022-11-25T05:26:16.802Z,1.31
2022-11-25T05:27:16.792Z,1.31
2022-11-25T05:28:16.802Z,1.37
2022-11-25T05:29:16.777Z,1.42
2022-11-25T05:30:16.769Z,1.37
2022-11-25T05:31:16.780Z,1.42
2022-11-25T05:32:16.756Z,1.41
2022-11-25T05:33:16.767Z,1.34
2022-11-25T05:34:16.732Z,1.37
2022-11-25T05:35:16.737Z,1.35
2022-11-25T05:36:16.707Z,1.38
2022-11-25T05:37:21.260Z,1.40
2022-11-25T05:38:18.733Z,1.48
2022-11-25T05:39:16.698Z,1.42
2022-11-25T05:40:16.696Z,1.40
2022-11-25T05:41:16.691Z,1.32
2022-11-25T05:42:16.684Z,1.42
2022-11-25T05:43:16.706Z,1.41
2022-11-25T05:44:22.428Z,1.35
2022-11-25T05:45:18.659Z,1.40
2022-11-25T05:46:16.688Z,1.38
2022-11-25T05:47:16.639Z,1.44
2022-11-25T05:48:16.656Z,1.38
2022-11-25T05:49:16.623Z,1.40
2022-11-25T05:50:16.619Z,1.44
2022-11-25T05:51:16.621Z,1.44
2022-11-25T05:52:16.623Z,1.44
2022-11-25T05:53:16.629Z,1.38
2022-11-25T05:54:16.599Z,1.45
2022-11-25T05:55:16.585Z,1.45
2022-11-25T05:56:16.574Z,1.37
2022-11-25T05:57:16.571Z,1.30
2022-11-25T05:58:16.592Z,1.34
2022-11-25T05:59:16.558Z,1.38
2022-11-25T06:00:16.544Z,1.26
2022-11-25T06:01:16.542Z,1.31
2022-11-25T06:02:16.578Z,1.28
2022-11-25T06:03:16.656Z,1.32
2022-11-25T06:04:16.516Z,1.32
2022-11-25T06:05:16.514Z,1.42
2022-11-25T06:06:16.499Z,1.41
2022-11-25T06:07:16.577Z,1.45
2022-11-25T06:08:16.522Z,1.48
2022-11-25T06:09:16.477Z,1.49
2022-11-25T06:10:16.476Z,1.55
2022-11-25T06:11:16.469Z,1.53
2022-11-25T06:12:16.455Z,1.60
2022-11-25T06:13:16.476Z,1.58
2022-11-25T06:14:16.445Z,1.63
2022-11-25T06:15:16.430Z,1.60
2022-11-25T06:16:16.486Z,1.63
2022-11-25T06:17:16.419Z,1.70
2022-11-25T06:18:16.440Z,1.67
2022-11-25T06:19:16.407Z,1.50
2022-11-25T06:20:16.405Z,1.38
2022-11-25T06:21:16.400Z,1.26
2022-11-25T06:22:16.388Z,1.34
2022-11-25T06:23:16.410Z,1.44
2022-11-25T06:24:16.375Z,1.44
2022-11-25T06:25:16.367Z,1.38
2022-11-25T06:26:16.346Z,1.42
2022-11-25T06:27:16.350Z,1.37
2022-11-25T06:28:30.099Z,1.49
2022-11-25T06:29:16.324Z,1.38
2022-11-25T06:30:16.333Z,1.45
2022-11-25T06:31:16.405Z,1.40
2022-11-25T06:32:16.317Z,1.44
2022-11-25T06:33:16.310Z,1.45
2022-11-25T06:34:16.323Z,1.56
2022-11-25T06:35:16.295Z,1.48
2022-11-25T06:36:16.286Z,1.63
2022-11-25T06:37:16.267Z,1.60
2022-11-25T06:38:16.265Z,1.73
2022-11-25T06:39:16.284Z,1.71
2022-11-25T06:40:16.251Z,1.73
2022-11-25T06:41:16.239Z,1.62
2022-11-25T06:42:16.233Z,1.67
2022-11-25T06:43:16.234Z,1.66
2022-11-25T06:44:16.248Z,1.55
2022-11-25T06:45:16.205Z,1.49
2022-11-25T06:46:19.792Z,1.48
2022-11-25T06:47:18.219Z,1.52
2022-11-25T06:48:16.186Z,1.53
2022-11-25T06:49:16.205Z,1.58
2022-11-25T06:50:16.177Z,1.44
2022-11-25T06:51:16.153Z,1.41
2022-11-25T06:52:16.158Z,1.42
2022-11-25T06:53:19.896Z,1.44
2022-11-25T06:54:18.161Z,1.48
2022-11-25T06:55:16.127Z,1.58
2022-11-25T06:56:16.123Z,1.59
2022-11-25T06:57:16.135Z,1.66
2022-11-25T06:58:35.027Z,1.76
2022-11-25T06:59:18.121Z,1.71
2022-11-25T07:00:16.094Z,1.80
2022-11-25T07:01:16.135Z,1.78
2022-11-25T07:02:16.111Z,1.76
2022-11-25T07:03:16.123Z,1.71
2022-11-25T07:04:16.086Z,1.71
2022-11-25T07:05:16.056Z,1.73
2022-11-25T07:06:16.048Z,1.78
2022-11-25T07:07:16.119Z,1.70
2022-11-25T07:08:17.033Z,1.63
2022-11-25T07:09:16.057Z,1.71
2022-11-25T07:10:16.014Z,1.68
2022-11-25T07:11:16.016Z,1.80
2022-11-25T07:12:15.997Z,1.81
2022-11-25T07:13:15.996Z,1.80
2022-11-25T07:14:16.005Z,1.78
2022-11-25T07:15:15.977Z,1.80
2022-11-25T07:16:16.010Z,1.77
2022-11-25T07:17:15.962Z,1.71
2022-11-25T07:18:15.953Z,1.60
2022-11-25T07:19:15.975Z,1.44
2022-11-25T07:20:15.934Z,1.58
2022-11-25T07:21:15.943Z,1.58
2022-11-25T07:22:15.978Z,1.62
2022-11-25T07:23:15.931Z,1.71
2022-11-25T07:24:15.932Z,1.77
2022-11-25T07:25:15.898Z,1.76
2022-11-25T07:26:15.890Z,1.81
2022-11-25T07:27:15.888Z,1.81
2022-11-25T07:28:15.877Z,1.87
2022-11-25T07:29:44.462Z,1.88
2022-11-25T07:31:28.695Z,1.95
2022-11-25T07:32:17.845Z,1.92
2022-11-25T07:33:15.900Z,1.94
2022-11-25T07:34:15.862Z,1.88
2022-11-25T07:35:15.824Z,1.87
2022-11-25T07:36:15.828Z,1.92
2022-11-25T07:37:15.807Z,1.97
2022-11-25T07:38:15.805Z,1.97
2022-11-25T07:39:15.824Z,2.08
2022-11-25T07:40:15.794Z,2.04
2022-11-25T07:41:15.776Z,2.07
2022-11-25T07:42:15.776Z,2.13
2022-11-25T07:43:15.757Z,2.32
2022-11-25T07:44:15.785Z,2.31
2022-11-25T07:45:15.754Z,2.29
2022-11-25T07:46:16.461Z,2.33
2022-11-25T07:47:15.721Z,2.32
2022-11-25T07:48:16.739Z,2.33
2022-11-25T07:49:15.739Z,2.28
2022-11-25T07:50:15.725Z,2.28
2022-11-25T07:51:15.704Z,2.35
2022-11-25T07:52:15.700Z,2.39
2022-11-25T07:53:15.701Z,2.35
2022-11-25T07:54:15.708Z,2.36
2022-11-25T07:55:15.686Z,2.31
2022-11-25T07:56:15.676Z,2.35
2022-11-25T07:57:15.702Z,2.29
2022-11-25T07:58:15.649Z,2.33
2022-11-25T07:59:15.671Z,2.36
2022-11-25T08:00:15.660Z,2.36
2022-11-25T08:01:15.684Z,2.43
2022-11-25T08:02:15.651Z,2.47
2022-11-25T08:03:15.697Z,2.49
2022-11-25T08:04:20.082Z,2.53
2022-11-25T08:05:17.599Z,2.46
2022-11-25T08:06:15.588Z,2.54
2022-11-25T08:07:16.591Z,2.47
2022-11-25T08:08:15.574Z,2.47
2022-11-25T08:09:15.600Z,2.44
2022-11-25T08:10:15.564Z,2.62
2022-11-25T08:11:15.555Z,2.54
2022-11-25T08:12:15.545Z,2.51
2022-11-25T08:13:15.535Z,2.46
2022-11-25T08:14:15.563Z,2.60
2022-11-25T08:15:15.524Z,2.54
2022-11-25T08:16:15.618Z,2.56
2022-11-25T08:17:15.516Z,2.67
2022-11-25T08:18:15.499Z,2.69
2022-11-25T08:19:15.528Z,2.65
2022-11-25T08:20:15.496Z,2.72
2022-11-25T08:21:15.477Z,2.85
2022-11-25T08:22:15.488Z,2.82
2022-11-25T08:23:15.469Z,2.85
2022-11-25T08:24:15.496Z,2.89
2022-11-25T08:25:15.456Z,2.93
2022-11-25T08:26:15.455Z,2.83
2022-11-25T08:27:15.444Z,2.93
2022-11-25T08:28:15.432Z,3.08
2022-11-25T08:29:15.462Z,3.03
2022-11-25T08:30:15.419Z,3.04
2022-11-25T08:31:15.483Z,3.08
2022-11-25T08:32:15.407Z,3.14
2022-11-25T08:33:15.388Z,3.05
2022-11-25T08:34:15.425Z,3.11
2022-11-25T08:35:15.371Z,3.07
2022-11-25T08:36:15.367Z,3.07
2022-11-25T08:37:15.362Z,2.97
2022-11-25T08:38:15.358Z,3.04
2022-11-25T08:39:36.071Z,3.11
2022-11-25T08:40:17.339Z,3.04
2022-11-25T08:41:15.341Z,3.05
2022-11-25T08:42:15.321Z,3.03
2022-11-25T08:43:15.317Z,2.95
2022-11-25T08:44:15.334Z,2.95
2022-11-25T08:45:15.315Z,2.92
2022-11-25T08:46:15.337Z,2.93
2022-11-25T08:47:15.291Z,2.90
2022-11-25T08:48:15.285Z,2.89
2022-11-25T08:49:15.305Z,3.01
2022-11-25T08:50:15.263Z,2.92
2022-11-25T08:51:15.250Z,2.83
2022-11-25T08:52:15.252Z,2.87
2022-11-25T08:53:15.241Z,2.85
2022-11-25T08:54:15.231Z,2.90
2022-11-25T08:55:15.261Z,2.95
2022-11-25T08:56:15.214Z,2.95
2022-11-25T08:57:15.265Z,2.97
2022-11-25T08:58:15.202Z,3.04
2022-11-25T08:59:15.193Z,3.08
2022-11-25T09:00:15.212Z,3.16
2022-11-25T09:01:15.182Z,3.08
2022-11-25T09:02:15.245Z,3.08
2022-11-25T09:03:15.245Z,3.14
2022-11-25T09:04:15.155Z,3.23
2022-11-25T09:05:15.184Z,3.31
2022-11-25T09:06:15.150Z,3.41
2022-11-25T09:07:15.164Z,3.41
2022-11-25T09:08:15.192Z,3.44
2022-11-25T09:09:15.165Z,3.56
2022-11-25T09:10:15.204Z,3.63
2022-11-25T09:11:15.196Z,3.63
2022-11-25T09:12:15.135Z,3.65
2022-11-25T09:13:15.098Z,3.68
2022-11-25T09:14:15.112Z,3.73
2022-11-25T09:15:15.100Z,3.77
2022-11-25T09:16:15.138Z,3.86
2022-11-25T09:17:15.059Z,3.95
2022-11-25T09:18:15.059Z,3.91
2022-11-25T09:19:15.051Z,3.94
2022-11-25T09:20:15.122Z,3.94
2022-11-25T09:21:15.043Z,3.99
2022-11-25T09:22:15.027Z,3.96
2022-11-25T09:23:15.026Z,3.92
2022-11-25T09:24:15.017Z,3.84
2022-11-25T09:25:15.023Z,3.80
2022-11-25T09:26:14.984Z,3.84
2022-11-25T09:27:14.981Z,3.96
2022-11-25T09:28:14.972Z,3.92
2022-11-25T09:29:14.990Z,4.13
2022-11-25T09:30:15.038Z,4.04
2022-11-25T09:31:14.992Z,4.10
2022-11-25T09:32:14.972Z,4.12
2022-11-25T09:33:14.949Z,4.19
2022-11-25T09:34:14.956Z,4.23
2022-11-25T09:35:14.959Z,4.24
2022-11-25T09:36:14.946Z,4.19
2022-11-25T09:37:14.906Z,4.14
2022-11-25T09:38:14.895Z,4.10
2022-11-25T09:39:14.903Z,4.01
2022-11-25T09:40:14.924Z,4.13
2022-11-25T09:41:14.937Z,4.23
2022-11-25T09:42:14.886Z,4.42
2022-11-25T09:43:15.857Z,4.45
2022-11-25T09:44:14.845Z,4.50
2022-11-25T09:45:14.910Z,4.50
2022-11-25T09:46:14.876Z,4.49
2022-11-25T09:47:14.852Z,4.48
2022-11-25T09:48:14.818Z,4.48
2022-11-25T09:49:14.817Z,4.50
2022-11-25T09:50:14.884Z,4.60
2022-11-25T09:51:14.817Z,4.55
2022-11-25T09:52:15.806Z,4.53
2022-11-25T09:53:14.869Z,4.60
2022-11-25T09:54:14.778Z,4.55
2022-11-25T09:55:14.811Z,4.63
2022-11-25T09:56:14.768Z,4.58
2022-11-25T09:57:15.768Z,4.58
2022-11-25T09:58:14.775Z,4.55
2022-11-25T09:59:14.783Z,4.55
2022-11-25T10:00:15.045Z,4.63
2022-11-25T10:01:14.738Z,4.67
2022-11-25T10:02:14.801Z,4.70
2022-11-25T10:03:14.845Z,4.71
2022-11-25T10:04:14.749Z,4.71
2022-11-25T10:05:14.764Z,4.75
2022-11-25T10:06:14.759Z,4.80
2022-11-25T10:07:14.683Z,4.90
2022-11-25T10:08:14.659Z,4.97
2022-11-25T10:09:14.719Z,5.08
2022-11-25T10:10:15.709Z,5.08
2022-11-25T10:11:14.652Z,5.10
2022-11-25T10:12:14.627Z,5.04
2022-11-25T10:13:14.635Z,5.18
2022-11-25T10:14:14.631Z,5.18
2022-11-25T10:15:14.646Z,5.21
2022-11-25T10:16:14.727Z,5.28
2022-11-25T10:17:14.617Z,5.18
2022-11-25T10:18:14.611Z,5.28
2022-11-25T10:19:14.596Z,5.14
2022-11-25T10:20:14.588Z,5.23
2022-11-25T10:21:14.611Z,5.30
2022-11-25T10:22:14.577Z,5.28
2022-11-25T10:23:14.568Z,5.20
2022-11-25T10:24:14.580Z,5.15
2022-11-25T10:25:14.564Z,5.23
2022-11-25T10:26:14.571Z,5.23
2022-11-25T10:27:14.574Z,5.32
2022-11-25T10:28:14.533Z,5.32
2022-11-25T10:29:14.509Z,5.33
2022-11-25T10:30:14.515Z,5.30
2022-11-25T10:31:14.585Z,5.32
2022-11-25T10:32:14.501Z,5.32
2022-11-25T10:33:14.494Z,5.35
2022-11-25T10:34:14.495Z,5.38
2022-11-25T10:35:14.478Z,5.38
2022-11-25T10:36:14.499Z,5.30
2022-11-25T10:37:14.470Z,5.32
2022-11-25T10:38:18.844Z,5.39
2022-11-25T10:39:15.427Z,5.35
2022-11-25T10:40:14.441Z,5.32
2022-11-25T10:41:14.453Z,5.30
2022-11-25T10:42:14.422Z,5.25
2022-11-25T10:43:14.413Z,5.29
2022-11-25T10:44:14.392Z,5.26
2022-11-25T10:45:14.472Z,5.44
2022-11-25T10:46:14.431Z,5.44
2022-11-25T10:47:15.210Z,5.44
2022-11-25T10:48:15.379Z,5.46
2022-11-25T10:49:14.381Z,5.54
2022-11-25T10:50:14.358Z,5.51
2022-11-25T10:51:14.376Z,5.54
2022-11-25T10:52:14.347Z,5.47
2022-11-25T10:53:14.336Z,5.61
2022-11-25T10:54:14.327Z,5.57
2022-11-25T10:55:14.301Z,5.57
2022-11-25T10:56:14.351Z,5.61
2022-11-25T10:57:14.295Z,5.66
2022-11-25T10:58:14.303Z,5.59
2022-11-25T10:59:14.295Z,5.57
2022-11-25T11:00:17.481Z,5.56
2022-11-25T11:01:15.442Z,5.61
2022-11-25T11:02:14.310Z,5.57
2022-11-25T11:03:14.383Z,5.66
2022-11-25T11:04:14.264Z,5.68
2022-11-25T11:05:14.247Z,5.72
2022-11-25T11:06:14.272Z,5.64
2022-11-25T11:07:14.317Z,5.68
2022-11-25T11:08:14.203Z,5.66
2022-11-25T11:09:14.205Z,5.72
2022-11-25T11:10:14.190Z,5.69
2022-11-25T11:11:14.225Z,5.75
2022-11-25T11:12:14.171Z,5.83
2022-11-25T11:13:14.175Z,5.86
2022-11-25T11:14:14.172Z,5.89
2022-11-25T11:15:14.164Z,5.84
2022-11-25T11:16:14.231Z,5.83
2022-11-25T11:17:14.148Z,5.89
2022-11-25T11:18:14.133Z,5.94
2022-11-25T11:19:14.146Z,5.97
2022-11-25T11:20:14.138Z,6.05
2022-11-25T11:21:14.139Z,5.97
2022-11-25T11:22:14.159Z,5.91
2022-11-25T11:23:14.123Z,6.09
2022-11-25T11:24:14.143Z,6.08
2022-11-25T11:25:14.101Z,6.08
2022-11-25T11:26:14.117Z,6.20
2022-11-25T11:27:14.107Z,6.22
2022-11-25T11:28:14.073Z,6.36
2022-11-25T11:29:14.442Z,6.39
2022-11-25T11:30:15.162Z,6.35
2022-11-25T11:31:14.091Z,6.38
2022-11-25T11:32:14.064Z,6.48
2022-11-25T11:33:14.038Z,6.48
2022-11-25T11:34:14.014Z,6.56
2022-11-25T11:35:14.048Z,6.57
2022-11-25T11:36:14.044Z,6.64
2022-11-25T11:37:14.043Z,6.69
2022-11-25T11:38:14.027Z,6.70
2022-11-25T11:39:13.986Z,6.75
2022-11-25T11:40:14.056Z,6.75
2022-11-25T11:41:13.997Z,6.70
2022-11-25T11:42:14.015Z,6.79
2022-11-25T11:43:13.962Z,6.78
2022-11-25T11:44:13.974Z,6.82
2022-11-25T11:45:13.945Z,6.79
2022-11-25T11:46:14.042Z,6.89
2022-11-25T11:47:13.956Z,6.77
2022-11-25T11:48:13.906Z,6.84
2022-11-25T11:49:13.898Z,6.79
2022-11-25T11:50:14.006Z,6.97
2022-11-25T11:51:13.918Z,6.82
2022-11-25T11:52:13.916Z,6.93
2022-11-25T11:53:13.890Z,6.99
2022-11-25T11:54:13.892Z,7.00
2022-11-25T11:55:13.889Z,7.17
2022-11-25T11:57:15.879Z,7.18
2022-11-25T11:58:13.837Z,7.21
2022-11-25T11:59:13.828Z,7.32
2022-11-25T12:00:13.830Z,7.31
2022-11-25T12:01:13.825Z,7.32
2022-11-25T12:02:13.888Z,7.31
2022-11-25T12:03:13.882Z,7.39
2022-11-25T12:04:13.807Z,7.23
2022-11-25T12:05:13.782Z,7.21
2022-11-25T12:06:13.778Z,7.29
2022-11-25T12:07:13.821Z,7.11
2022-11-25T12:08:13.767Z,7.28
2022-11-25T12:09:13.791Z,7.23
2022-11-25T12:10:13.757Z,7.21
2022-11-25T12:11:13.747Z,7.28
2022-11-25T12:12:13.772Z,7.29
2022-11-25T12:13:13.774Z,7.24
2022-11-25T12:14:13.720Z,7.29
2022-11-25T12:15:13.716Z,7.29
2022-11-25T12:16:13.745Z,7.17
2022-11-25T12:17:13.725Z,7.25
2022-11-25T12:18:13.675Z,7.24
2022-11-25T12:19:13.669Z,7.31
2022-11-25T12:20:13.666Z,7.29
2022-11-25T12:21:13.669Z,7.23
2022-11-25T12:22:13.697Z,7.28
2022-11-25T12:23:14.017Z,7.35
2022-11-25T12:24:13.625Z,7.33
2022-11-25T12:25:13.616Z,7.33
2022-11-25T12:26:13.617Z,7.47
2022-11-25T12:27:13.616Z,7.47
2022-11-25T12:28:13.635Z,7.48
2022-11-25T12:29:46.161Z,7.56
2022-11-25T12:30:13.585Z,7.50
2022-11-25T12:31:13.624Z,7.61
2022-11-25T12:32:13.553Z,7.63
2022-11-25T12:33:13.577Z,7.56
2022-11-25T12:34:13.546Z,7.47
2022-11-25T12:35:13.543Z,7.42
2022-11-25T12:36:13.526Z,7.43
2022-11-25T12:37:15.225Z,7.42
2022-11-25T12:38:14.538Z,7.40
2022-11-25T12:39:13.510Z,7.40
2022-11-25T12:40:13.502Z,7.38
2022-11-25T12:41:13.496Z,7.36
2022-11-25T12:42:13.487Z,7.47
2022-11-25T12:43:13.502Z,7.35
2022-11-25T12:44:13.458Z,7.48
2022-11-25T12:45:13.461Z,7.48
2022-11-25T12:46:13.496Z,7.47
2022-11-25T12:47:13.440Z,7.43
2022-11-25T12:48:17.334Z,7.48
2022-11-25T12:49:14.424Z,7.56
2022-11-25T12:50:13.423Z,7.45
2022-11-25T12:51:13.423Z,7.43
2022-11-25T12:52:13.411Z,7.50
2022-11-25T12:53:13.424Z,7.53
2022-11-25T12:54:13.397Z,7.47
2022-11-25T12:55:13.395Z,7.47
2022-11-25T12:56:13.378Z,7.48
2022-11-25T12:57:13.374Z,7.60
2022-11-25T12:58:13.430Z,7.54
2022-11-25T12:59:13.350Z,7.48
2022-11-25T13:01:15.416Z,7.58
2022-11-25T13:02:13.372Z,7.48
2022-11-25T13:03:14.231Z,7.54
2022-11-25T13:04:14.311Z,7.61
2022-11-25T13:05:33.241Z,7.58
2022-11-25T13:06:15.296Z,7.73
2022-11-25T13:07:13.339Z,7.77
2022-11-25T13:08:13.299Z,7.69
2022-11-25T13:09:13.270Z,7.77
2022-11-25T13:10:13.259Z,7.77
2022-11-25T13:11:13.508Z,7.80
2022-11-25T13:12:13.733Z,7.88
2022-11-25T13:13:17.954Z,7.85
2022-11-25T13:14:15.528Z,7.87
2022-11-25T13:15:13.905Z,7.85
2022-11-25T13:16:13.715Z,7.80
2022-11-25T13:17:13.671Z,7.80
2022-11-25T13:18:13.307Z,7.80
2022-11-25T13:19:13.193Z,7.83
2022-11-25T13:20:13.216Z,7.90
2022-11-25T13:21:13.177Z,7.90
2022-11-25T13:22:13.171Z,8.00
2022-11-25T13:23:13.206Z,7.98